Time;durP1;ratioP1;P1;durP2;ratioP2;P2;SDS_P1;SDS_P2;PMS_P1;PMS_P2;Temp;Humidity;BMP_temperature;BMP_pressure;BME280_temperature;BME280_humidity;BME280_pressure;Samples;Min_cycle;Max_cycle;Signal;HPM_P1;HPM_P2
2023/06/15 00:01:01;;;;;;;2.75;1.95;;;;;;;17.29;54.00;101669.81;4939896;28;20063;-71
2023/06/15 00:03:46;;;;;;;5.80;2.03;;;;;;;17.29;54.37;101662.66;4945535;28;20155;-71
2023/06/15 00:06:33;;;;;;;2.22;1.73;;;;;;;17.28;54.32;101668.09;4942661;28;20097;-70
2023/06/15 00:09:19;;;;;;;2.20;1.70;;;;;;;17.26;54.77;101665.47;4947840;28;20055;-71
2023/06/15 00:12:08;;;;;;;5.55;1.88;;;;;;;17.27;54.64;101669.88;4940738;28;20068;-71
2023/06/15 00:14:54;;;;;;;6.50;2.17;;;;;;;17.23;54.96;101668.28;4947137;28;20055;-71
2023/06/15 00:17:41;;;;;;;5.65;2.25;;;;;;;17.18;54.96;101665.84;4945331;28;20471;-71
2023/06/15 00:20:28;;;;;;;4.90;2.20;;;;;;;17.13;55.06;101667.81;4944535;28;20060;-71
2023/06/15 00:23:17;;;;;;;3.38;2.40;;;;;;;17.08;55.37;101660.03;4947714;28;20094;-74
2023/06/15 00:26:02;;;;;;;3.83;1.95;;;;;;;17.06;55.23;101663.72;4936797;28;20060;-72
2023/06/15 00:28:48;;;;;;;2.53;1.90;;;;;;;17.07;55.25;101670.78;4931740;28;20048;-73
2023/06/15 00:31:35;;;;;;;3.92;2.25;;;;;;;17.11;55.06;101671.50;4930104;28;20728;-73
2023/06/15 00:34:20;;;;;;;5.00;2.22;;;;;;;17.08;55.56;101677.84;4941679;28;20100;-73
2023/06/15 00:37:06;;;;;;;5.75;2.28;;;;;;;17.02;55.35;101678.97;4942084;28;20059;-72
2023/06/15 00:39:52;;;;;;;5.35;2.20;;;;;;;16.96;55.87;101673.91;4960819;28;20055;-73
2023/06/15 00:42:38;;;;;;;2.78;2.20;;;;;;;16.98;55.65;101680.03;4946479;28;20051;-73
2023/06/15 00:45:23;;;;;;;3.05;2.13;;;;;;;17.00;55.72;101680.84;4947981;28;20810;-72
2023/06/15 00:48:09;;;;;;;4.55;2.25;;;;;;;16.98;55.80;101676.50;4944323;28;20099;-72
2023/06/15 00:50:55;;;;;;;4.88;2.30;;;;;;;16.90;55.94;101684.78;4948260;28;20052;-71
2023/06/15 00:53:43;;;;;;;2.80;2.10;;;;;;;16.90;56.21;101684.78;4960003;28;20138;-71
2023/06/15 00:56:29;;;;;;;5.75;2.33;;;;;;;16.86;56.28;101685.84;4940146;28;20509;-71
2023/06/15 00:59:17;;;;;;;5.50;2.17;;;;;;;16.76;56.62;101682.75;4944701;28;20056;-71
2023/06/15 01:02:03;;;;;;;3.38;2.20;;;;;;;16.70;56.81;101682.97;4944257;28;20067;-72
2023/06/15 01:04:49;;;;;;;3.67;2.22;;;;;;;16.60;57.42;101688.69;4960140;28;20713;-73
2023/06/15 01:07:35;;;;;;;3.90;2.25;;;;;;;16.56;57.45;101687.13;4935122;28;20056;-72
2023/06/15 01:10:24;;;;;;;3.78;2.30;;;;;;;16.55;57.42;101689.81;4944697;28;20051;-73
2023/06/15 01:13:19;;;;;;;2.97;2.10;;;;;;;16.56;57.48;101687.13;4946436;28;20048;-73
2023/06/15 01:16:14;;;;;;;4.47;2.30;;;;;;;16.63;57.12;101686.84;4936045;28;20052;-73
2023/06/15 01:19:01;;;;;;;3.92;2.47;;;;;;;16.67;57.25;101693.78;4949240;28;20056;-73
2023/06/15 01:21:48;;;;;;;5.32;2.20;;;;;;;16.67;57.32;101693.78;4947415;28;20150;-73
2023/06/15 01:24:37;;;;;;;4.07;2.28;;;;;;;16.77;57.41;101695.13;4942183;28;20143;-72
2023/06/15 01:27:24;;;;;;;4.00;2.40;;;;;;;16.82;57.27;101695.78;4950001;28;20043;-74
2023/06/15 01:30:12;;;;;;;6.43;2.58;;;;;;;16.86;57.22;101691.19;4949315;28;20097;-71
2023/06/15 01:32:59;;;;;;;3.65;2.63;;;;;;;16.88;56.98;101700.84;4958184;28;20063;-71
2023/06/15 01:35:44;;;;;;;3.42;2.40;;;;;;;16.81;57.13;101694.03;4950017;28;20059;-71
2023/06/15 01:38:30;;;;;;;7.63;2.42;;;;;;;16.80;57.26;101700.28;4962180;28;20183;-72
2023/06/15 01:41:20;;;;;;;3.53;2.22;;;;;;;16.75;57.52;101694.31;4939435;28;20564;-72
2023/06/15 01:44:06;;;;;;;6.53;2.60;;;;;;;16.72;57.51;101692.66;4958661;28;20052;-73
2023/06/15 01:46:51;;;;;;;4.68;2.80;;;;;;;16.75;57.56;101691.66;4959767;28;20056;-73
2023/06/15 01:49:39;;;;;;;4.43;2.58;;;;;;;16.74;57.76;101704.09;4952233;28;20055;-73
2023/06/15 01:52:25;;;;;;;5.18;2.60;;;;;;;16.75;57.50;101703.16;4944484;28;20151;-72
2023/06/15 01:55:11;;;;;;;6.38;2.97;;;;;;;16.75;57.52;101694.31;4949507;28;20059;-71
2023/06/15 01:57:57;;;;;;;4.30;2.97;;;;;;;16.70;57.62;101698.97;4947300;28;20512;-73
2023/06/15 02:00:44;;;;;;;3.65;2.70;;;;;;;16.60;57.83;101696.69;4956013;28;20055;-72
2023/06/15 02:03:31;;;;;;;3.90;2.97;;;;;;;16.49;58.06;101701.59;4947793;28;20052;-72
2023/06/15 02:06:16;;;;;;;3.88;2.75;;;;;;;16.42;58.34;101702.78;4936462;28;20056;-73
2023/06/15 02:09:01;;;;;;;4.15;3.22;;;;;;;16.40;58.36;101694.88;4942927;28;20100;-73
2023/06/15 02:11:47;;;;;;;3.42;2.97;;;;;;;16.40;59.11;101696.66;4962454;28;20063;-73
2023/06/15 02:14:32;;;;;;;4.30;3.17;;;;;;;16.45;58.69;101702.66;4956684;28;20551;-72
2023/06/15 02:17:18;;;;;;;4.90;2.78;;;;;;;16.43;58.76;101696.53;4955728;28;20493;-72
2023/06/15 02:20:09;;;;;;;3.53;2.70;;;;;;;16.37;58.89;101697.66;4944720;28;20056;-73
2023/06/15 02:22:57;;;;;;;7.78;3.08;;;;;;;16.39;59.13;101695.81;4958004;28;20504;-71
2023/06/15 02:25:42;;;;;;;6.38;3.03;;;;;;;16.52;59.15;101700.63;4943481;28;20056;-73
2023/06/15 02:28:27;;;;;;;3.60;2.97;;;;;;;16.52;58.64;101705.94;4946172;28;20051;-73
2023/06/15 02:31:13;;;;;;;4.43;3.10;;;;;;;16.53;58.77;101702.34;4949713;28;20056;-73
2023/06/15 02:33:59;;;;;;;7.90;3.33;;;;;;;16.57;58.65;101707.47;4942448;28;20120;-73
2023/06/15 02:36:46;;;;;;;5.30;3.10;;;;;;;16.61;58.38;101706.41;4950237;28;20521;-73
2023/06/15 02:39:31;;;;;;;5.00;3.50;;;;;;;16.55;58.52;101708.47;4944283;28;20051;-70
2023/06/15 02:42:16;;;;;;;6.53;3.33;;;;;;;16.37;58.74;101710.09;4941814;28;20056;-70
2023/06/15 02:45:03;;;;;;;6.78;3.60;;;;;;;16.17;59.61;101710.91;4947264;28;20059;-70
2023/06/15 02:47:48;;;;;;;4.22;3.47;;;;;;;16.09;60.33;101709.41;4944551;28;20162;-72
2023/06/15 02:50:35;;;;;;;8.10;3.58;;;;;;;16.08;60.18;101714.78;4963026;28;20055;-73
2023/06/15 02:53:27;;;;;;;7.45;3.58;;;;;;;16.03;60.78;101714.97;4951987;28;20052;-74
2023/06/15 02:56:20;;;;;;;5.50;3.67;;;;;;;15.97;60.58;101713.41;4958310;28;20131;-73
2023/06/15 02:59:07;;;;;;;9.93;3.83;;;;;;;15.95;60.72;101709.09;4948897;28;20055;-74
2023/06/15 03:02:13;;;;;;;4.85;3.40;;;;;;;15.95;60.60;101717.06;4944275;28;20055;-73
2023/06/15 03:04:59;;;;;;;5.80;3.33;;;;;;;15.98;60.79;101720.47;4948968;28;20059;-72
2023/06/15 03:07:56;;;;;;;6.32;3.70;;;;;;;15.97;60.84;101717.88;4948157;28;20068;-71
2023/06/15 03:10:52;;;;;;;6.78;3.50;;;;;;;15.83;60.98;101713.06;4950215;28;20059;-70
2023/06/15 03:13:37;;;;;;;4.97;3.60;;;;;;;15.87;61.05;101719.16;4947867;28;20059;-71
2023/06/15 03:16:24;;;;;;;7.55;4.13;;;;;;;15.82;61.23;101716.66;4940655;28;20055;-70
2023/06/15 03:19:11;;;;;;;10.90;3.63;;;;;;;15.77;61.33;101714.16;4959024;28;20064;-73
2023/06/15 03:21:57;;;;;;;8.25;4.00;;;;;;;15.83;61.44;101715.72;4940938;28;20821;-73
2023/06/15 03:24:44;;;;;;;5.93;3.85;;;;;;;15.79;61.40;101716.75;4956219;28;20055;-72
2023/06/15 03:27:32;;;;;;;4.97;4.05;;;;;;;15.75;61.47;101717.81;4945173;28;20063;-73
2023/06/15 03:30:21;;;;;;;5.75;3.72;;;;;;;15.68;61.65;101714.50;4957496;28;20063;-72
2023/06/15 03:33:09;;;;;;;7.10;4.18;;;;;;;15.60;62.16;101725.44;4947947;28;20063;-74
2023/06/15 03:35:55;;;;;;;5.88;4.18;;;;;;;15.56;62.10;101721.16;4948683;28;20055;-75
2023/06/15 03:38:41;;;;;;;5.22;3.85;;;;;;;15.53;62.68;101722.13;4949995;28;20103;-74
2023/06/15 03:41:28;;;;;;;9.85;4.22;;;;;;;15.53;62.64;101723.94;4942489;28;20052;-73
2023/06/15 03:44:14;;;;;;;6.40;4.63;;;;;;;15.52;62.85;101727.50;4944960;28;20655;-74
2023/06/15 03:47:00;;;;;;;8.95;4.72;;;;;;;15.51;63.11;101723.13;4946304;28;20103;-73
2023/06/15 03:49:46;;;;;;;8.98;4.47;;;;;;;15.56;62.83;101728.25;4959785;28;20520;-73
2023/06/15 03:52:33;;;;;;;6.05;4.30;;;;;;;15.64;62.81;101718.19;4946935;28;20055;-74
2023/06/15 03:55:20;;;;;;;8.63;4.10;;;;;;;15.72;62.64;101728.56;4953892;28;20060;-74
2023/06/15 03:58:06;;;;;;;8.57;4.45;;;;;;;15.75;62.49;101736.41;4952229;28;20059;-74
2023/06/15 04:00:52;;;;;;;8.80;3.90;;;;;;;15.84;62.58;101730.78;4959122;28;20052;-74
2023/06/15 04:03:37;;;;;;;5.85;4.32;;;;;;;16.04;62.10;101729.13;4956871;28;20495;-73
2023/06/15 04:06:23;;;;;;;5.45;4.10;;;;;;;16.21;61.82;101728.47;4954797;28;20056;-74
2023/06/15 04:09:09;;;;;;;5.38;4.18;;;;;;;16.35;61.20;101733.25;4960289;28;20063;-74
2023/06/15 04:11:54;;;;;;;6.00;3.92;;;;;;;16.37;61.49;101726.06;4947746;28;20043;-74
2023/06/15 04:14:42;;;;;;;5.75;4.10;;;;;;;16.47;61.46;101735.41;4965676;28;20048;-74
2023/06/15 04:17:27;;;;;;;8.05;3.85;;;;;;;16.52;61.17;101736.06;4946460;28;20684;-72
2023/06/15 04:20:14;;;;;;;6.28;4.22;;;;;;;16.58;60.41;101738.47;4944117;28;20071;-72
2023/06/15 04:23:03;;;;;;;6.90;4.57;;;;;;;16.55;60.21;101732.41;4958047;28;20424;-72
2023/06/15 04:25:49;;;;;;;6.78;4.00;;;;;;;16.56;60.89;101735.03;4947961;28;20055;-71
2023/06/15 04:28:35;;;;;;;9.20;4.40;;;;;;;16.53;61.35;101742.28;4956219;28;20103;-73
2023/06/15 04:31:21;;;;;;;6.88;4.22;;;;;;;16.49;61.55;101741.50;4969233;28;20055;-74
2023/06/15 04:34:11;;;;;;;7.50;4.70;;;;;;;16.43;61.69;101745.28;4960159;28;20064;-75
2023/06/15 04:36:57;;;;;;;5.57;4.53;;;;;;;16.36;62.03;101743.81;4970354;28;20043;-72
2023/06/15 04:39:42;;;;;;;8.48;4.90;;;;;;;16.41;62.37;101748.94;4949979;28;20052;-73
2023/06/15 04:42:32;;;;;;;7.78;5.32;;;;;;;16.38;62.33;101747.28;4954711;28;20064;-73
2023/06/15 04:45:19;;;;;;;9.10;5.07;;;;;;;16.40;62.50;101748.09;4965588;28;20051;-71
2023/06/15 04:48:08;;;;;;;8.02;4.80;;;;;;;16.52;62.43;101767.16;4948466;28;20980;-72
2023/06/15 04:50:56;;;;;;;8.50;4.95;;;;;;;16.62;62.56;101755.19;4945780;28;20086;-73
2023/06/15 04:53:42;;;;;;;8.52;5.15;;;;;;;16.70;62.31;101755.75;4957689;28;20060;-72
2023/06/15 04:56:28;;;;;;;11.18;5.70;;;;;;;16.74;62.36;101760.00;4960002;28;20058;-73
2023/06/15 04:59:13;;;;;;;8.20;5.03;;;;;;;16.78;62.65;101760.75;4953163;28;20063;-72
2023/06/15 05:01:59;;;;;;;9.60;5.38;;;;;;;16.86;62.39;101760.41;4973628;28;20460;-73
2023/06/15 05:04:50;;;;;;;7.18;5.38;;;;;;;16.97;62.59;101752.03;4969340;28;20056;-72
2023/06/15 05:07:35;;;;;;;10.40;6.05;;;;;;;17.08;62.44;101757.75;4960763;28;20070;-74
2023/06/15 05:10:21;;;;;;;10.82;5.78;;;;;;;17.22;62.59;101767.81;4970592;28;20047;-72
2023/06/15 05:13:27;;;;;;;9.02;5.40;;;;;;;17.35;61.82;101760.13;4964133;28;20138;-73
2023/06/15 05:16:12;;;;;;;8.43;5.50;;;;;;;17.51;61.91;101762.97;4964832;28;20063;-72
2023/06/15 05:18:57;;;;;;;8.60;5.22;;;;;;;18.18;60.41;101759.94;4957043;28;20059;-74
2023/06/15 05:21:43;;;;;;;9.63;5.82;;;;;;;19.27;57.21;101756.31;4979919;28;20055;-71
2023/06/15 05:24:28;;;;;;;9.45;5.47;;;;;;;19.66;56.10;101756.94;4961229;28;20063;-74
2023/06/15 05:27:13;;;;;;;10.98;5.40;;;;;;;20.05;54.88;101758.41;4978444;28;20059;-71
2023/06/15 05:30:07;;;;;;;8.93;4.72;;;;;;;20.22;54.35;101753.91;4983003;28;20171;-73
2023/06/15 05:32:55;;;;;;;7.38;4.93;;;;;;;21.50;51.69;101751.72;4970011;28;20094;-73
2023/06/15 05:35:41;;;;;;;7.55;5.00;;;;;;;23.72;46.26;101753.22;4986202;28;20055;-72
2023/06/15 05:38:27;;;;;;;5.68;4.47;;;;;;;25.52;42.49;101753.25;4975065;28;20059;-71
2023/06/15 05:41:12;;;;;;;5.28;4.43;;;;;;;26.80;39.78;101750.91;4970040;28;20056;-72
2023/06/15 05:44:00;;;;;;;9.35;4.40;;;;;;;27.82;37.86;101746.63;4953133;28;20140;-72
2023/06/15 05:46:45;;;;;;;7.57;4.60;;;;;;;28.75;35.69;101754.44;4956595;28;20055;-72
2023/06/15 05:49:31;;;;;;;8.13;4.28;;;;;;;29.56;34.22;101758.56;4979112;28;20743;-72
2023/06/15 05:52:17;;;;;;;6.95;4.03;;;;;;;30.34;33.29;101761.84;4953352;28;20064;-72
2023/06/15 05:55:04;;;;;;;8.27;3.83;;;;;;;30.86;31.15;101755.69;4967782;28;20063;-73
2023/06/15 05:57:49;;;;;;;7.38;4.30;;;;;;;31.38;30.14;101760.31;4949007;28;20052;-72
2023/06/15 06:00:34;;;;;;;8.77;4.32;;;;;;;31.58;29.87;101763.66;4961768;28;20077;-70
2023/06/15 06:03:21;;;;;;;6.03;4.32;;;;;;;31.44;29.08;101765.09;4960255;28;20059;-69
2023/06/15 06:06:08;;;;;;;6.70;3.88;;;;;;;31.25;29.51;101768.06;4964871;28;20051;-70
2023/06/15 06:08:53;;;;;;;6.50;4.07;;;;;;;31.21;29.42;101762.06;4961947;28;20116;-70
2023/06/15 06:11:39;;;;;;;7.15;3.90;;;;;;;31.20;29.02;101757.63;4950118;28;20115;-70
2023/06/15 06:14:25;;;;;;;7.03;3.97;;;;;;;31.14;29.18;101758.28;4950011;28;20055;-70
2023/06/15 06:17:11;;;;;;;5.53;4.10;;;;;;;31.18;29.33;101758.81;4962486;28;20055;-70
2023/06/15 06:20:15;;;;;;;7.88;4.32;;;;;;;30.50;29.32;101758.41;4962833;28;20095;-70
2023/06/15 06:23:03;;;;;;;8.57;4.03;;;;;;;28.14;32.42;101769.09;4963083;28;20059;-70
2023/06/15 06:25:48;;;;;;;9.57;4.20;;;;;;;25.80;36.33;101762.72;4949710;28;20063;-70
2023/06/15 06:28:33;;;;;;;6.85;4.32;;;;;;;24.45;39.19;101764.97;4949253;28;20114;-70
2023/06/15 06:31:18;;;;;;;10.98;4.18;;;;;;;23.60;40.92;101764.84;4943584;28;20055;-70
2023/06/15 06:34:04;;;;;;;9.68;4.30;;;;;;;23.10;42.90;101773.63;4950191;28;20067;-69
2023/06/15 06:36:49;;;;;;;14.02;4.18;;;;;;;22.73;43.75;101770.78;4943073;28;20131;-70
2023/06/15 06:39:34;;;;;;;8.57;4.68;;;;;;;22.47;44.53;101778.75;4944675;28;20063;-70
2023/06/15 06:42:20;;;;;;;12.18;4.22;;;;;;;22.28;45.51;101771.03;4950951;28;20495;-70
2023/06/15 06:45:08;;;;;;;7.13;4.05;;;;;;;22.12;45.88;101776.53;4949415;28;20758;-70
2023/06/15 06:47:53;;;;;;;9.32;4.05;;;;;;;22.04;46.42;101771.63;4948473;28;20134;-70
2023/06/15 06:50:38;;;;;;;7.68;4.05;;;;;;;22.00;46.59;101773.66;4950463;28;20504;-69
2023/06/15 06:53:25;;;;;;;12.77;4.30;;;;;;;21.97;46.53;101784.59;4932770;28;20060;-69
2023/06/15 06:56:10;;;;;;;9.88;4.13;;;;;;;22.00;46.74;101780.84;4942553;28;20060;-70
2023/06/15 06:58:55;;;;;;;10.75;4.25;;;;;;;22.05;47.09;101780.53;4932452;28;20048;-70
2023/06/15 07:01:43;;;;;;;6.72;3.92;;;;;;;22.15;47.23;101781.66;4930718;28;20068;-70
2023/06/15 07:04:28;;;;;;;7.28;4.03;;;;;;;22.27;46.68;101783.56;4947928;28;20048;-70
2023/06/15 07:07:13;;;;;;;5.90;4.05;;;;;;;22.31;46.26;101779.72;4950614;28;20051;-70
2023/06/15 07:09:58;;;;;;;5.63;3.60;;;;;;;22.42;46.11;101783.56;4950803;28;20055;-70
2023/06/15 07:12:44;;;;;;;8.75;3.50;;;;;;;22.56;46.18;101783.50;4949854;28;20508;-70
2023/06/15 07:15:31;;;;;;;8.98;3.80;;;;;;;22.68;46.17;101784.53;4950458;28;20853;-70
2023/06/15 07:18:16;;;;;;;8.95;3.70;;;;;;;22.82;45.44;101783.59;4950079;28;20052;-70
2023/06/15 07:21:02;;;;;;;8.25;3.70;;;;;;;22.92;44.87;101786.50;4949730;28;20499;-70
2023/06/15 07:23:48;;;;;;;13.80;3.42;;;;;;;23.03;45.35;101785.78;4950537;28;20843;-70
2023/06/15 07:26:38;;;;;;;8.77;3.60;;;;;;;23.18;44.24;101786.56;4950527;28;20520;-70
2023/06/15 07:29:24;;;;;;;9.05;3.47;;;;;;;23.22;44.53;101788.97;4950162;28;20102;-70
2023/06/15 07:32:10;;;;;;;5.43;3.03;;;;;;;23.35;44.27;101783.59;4948920;28;20051;-70
2023/06/15 07:34:56;;;;;;;6.57;2.97;;;;;;;23.49;44.13;101776.38;4949732;28;20196;-70
2023/06/15 07:37:41;;;;;;;7.65;3.00;;;;;;;23.61;43.42;101782.72;4950339;28;20067;-70
2023/06/15 07:40:26;;;;;;;5.43;3.10;;;;;;;23.75;43.24;101779.91;4949906;28;20063;-70
2023/06/15 07:43:11;;;;;;;4.18;3.10;;;;;;;23.92;43.16;101780.53;4949631;28;20056;-69
2023/06/15 07:45:57;;;;;;;7.25;3.28;;;;;;;24.08;42.69;101774.91;4950147;28;20993;-70
2023/06/15 07:48:42;;;;;;;6.60;3.03;;;;;;;24.21;42.91;101781.13;4949865;28;20063;-70
2023/06/15 07:51:28;;;;;;;5.78;2.97;;;;;;;24.39;41.95;101781.56;4949259;28;20460;-70
2023/06/15 07:54:26;;;;;;;6.03;3.00;;;;;;;24.68;41.86;101778.56;4949598;28;20060;-71
2023/06/15 07:57:11;;;;;;;5.28;2.72;;;;;;;24.98;39.61;101784.44;4949881;28;20513;-70
2023/06/15 07:59:58;;;;;;;4.25;3.28;;;;;;;25.22;39.26;101781.66;4949269;28;20056;-70
2023/06/15 08:02:44;;;;;;;9.13;3.15;;;;;;;25.33;38.84;101784.38;4960655;28;20190;-71
2023/06/15 08:05:29;;;;;;;5.35;2.70;;;;;;;25.33;38.43;101781.69;4949812;28;20420;-70
2023/06/15 08:08:15;;;;;;;9.18;2.88;;;;;;;25.43;36.87;101780.00;4949615;28;20056;-70
2023/06/15 08:11:00;;;;;;;8.50;2.40;;;;;;;25.56;36.31;101779.88;4950546;28;20060;-71
2023/06/15 08:13:46;;;;;;;7.75;2.50;;;;;;;25.77;36.50;101781.84;4950213;28;20108;-71
2023/06/15 08:16:31;;;;;;;6.90;2.92;;;;;;;26.02;36.37;101780.72;4949957;28;20060;-71
2023/06/15 08:19:20;;;;;;;6.45;2.40;;;;;;;26.16;35.73;101778.78;4949185;28;20052;-70
2023/06/15 08:22:06;;;;;;;4.32;2.00;;;;;;;26.25;34.20;101769.91;4950300;28;20965;-70
2023/06/15 08:24:51;;;;;;;8.88;2.20;;;;;;;26.30;34.11;101773.06;4949499;28;20048;-70
2023/06/15 08:27:38;;;;;;;6.03;2.53;;;;;;;26.46;33.62;101772.66;4949753;28;20813;-71
2023/06/15 08:30:23;;;;;;;10.45;2.60;;;;;;;26.61;34.02;101777.78;4959119;28;20060;-70
2023/06/15 08:33:08;;;;;;;4.60;2.00;;;;;;;26.70;31.85;101776.16;4961536;28;20786;-70
2023/06/15 08:35:54;;;;;;;5.15;2.00;;;;;;;26.64;31.40;101778.38;4949550;28;20052;-71
2023/06/15 08:38:39;;;;;;;5.68;2.20;;;;;;;26.58;31.86;101772.63;4949494;28;20055;-70
2023/06/15 08:41:28;;;;;;;5.40;2.53;;;;;;;26.55;32.36;101784.56;4949584;28;20059;-70
2023/06/15 08:44:16;;;;;;;6.05;2.20;;;;;;;26.52;32.14;101776.69;4949717;28;20594;-70
2023/06/15 08:47:03;;;;;;;5.43;2.63;;;;;;;26.57;32.33;101779.88;4948931;28;20056;-71
2023/06/15 08:49:50;;;;;;;8.25;2.47;;;;;;;26.66;31.86;101778.22;4948492;28;20051;-70
2023/06/15 08:52:37;;;;;;;4.40;2.40;;;;;;;26.58;30.94;101778.91;4949185;28;20059;-71
2023/06/15 08:55:24;;;;;;;6.30;2.60;;;;;;;26.42;32.08;101773.03;4949992;28;20693;-71
2023/06/15 08:58:10;;;;;;;3.17;2.17;;;;;;;26.39;32.10;101779.56;4966155;28;20055;-70
2023/06/15 09:01:05;;;;;;;8.27;2.60;;;;;;;26.26;32.83;101774.31;4952450;28;20059;-70
2023/06/15 09:03:55;;;;;;;5.40;2.20;;;;;;;26.28;31.96;101769.66;4949011;28;20263;-71
2023/06/15 09:06:40;;;;;;;7.78;2.45;;;;;;;26.22;32.41;101763.91;4949559;28;20514;-71
2023/06/15 09:09:26;;;;;;;7.47;2.78;;;;;;;26.14;32.82;101775.34;4949321;28;20063;-72
2023/06/15 09:12:19;;;;;;;5.50;2.58;;;;;;;26.07;33.12;101768.69;4949038;28;20068;-70
2023/06/15 09:15:07;;;;;;;5.47;2.63;;;;;;;26.15;33.42;101766.25;4948779;28;20433;-70
2023/06/15 09:18:00;;;;;;;6.60;2.70;;;;;;;26.26;33.16;101768.03;4948744;28;20552;-71
2023/06/15 09:20:48;;;;;;;4.28;2.30;;;;;;;26.40;33.30;101762.38;4948866;28;20088;-71
2023/06/15 09:23:33;;;;;;;4.80;2.47;;;;;;;26.39;32.75;101757.94;4949104;28;20060;-70
2023/06/15 09:26:25;;;;;;;4.57;2.28;;;;;;;26.38;32.98;101760.78;4948254;28;20507;-70
2023/06/15 09:29:11;;;;;;;4.80;2.60;;;;;;;26.50;33.51;101757.06;4947786;28;20052;-71
2023/06/15 09:32:02;;;;;;;8.95;2.47;;;;;;;26.67;33.23;101761.91;4947991;28;20134;-70
2023/06/15 09:34:58;;;;;;;4.95;2.08;;;;;;;26.93;32.63;101760.69;4947218;28;20055;-71
2023/06/15 09:37:43;;;;;;;7.65;2.13;;;;;;;27.12;31.67;101752.69;4952175;28;20055;-70
2023/06/15 09:40:33;;;;;;;7.25;2.35;;;;;;;27.39;30.73;101753.97;4952074;28;20047;-70
2023/06/15 09:43:20;;;;;;;4.18;2.13;;;;;;;27.51;29.84;101757.50;4952345;28;20903;-70
2023/06/15 09:46:12;;;;;;;8.10;2.30;;;;;;;27.53;30.05;101750.06;4952179;28;20060;-70
2023/06/15 09:48:58;;;;;;;5.45;2.30;;;;;;;27.76;30.10;101762.56;4950944;28;20047;-71
2023/06/15 09:51:46;;;;;;;4.03;2.05;;;;;;;27.96;28.15;101756.22;4950960;28;20503;-72
2023/06/15 09:54:32;;;;;;;4.35;2.20;;;;;;;27.73;29.05;101758.25;4951072;28;20139;-71
2023/06/15 09:57:19;;;;;;;6.85;2.33;;;;;;;27.64;29.54;101751.84;4951810;28;20051;-71
2023/06/15 10:00:08;;;;;;;13.20;3.03;;;;;;;27.81;29.82;101746.75;4963691;28;20100;-70
2023/06/15 10:03:01;;;;;;;4.43;2.00;;;;;;;28.03;29.28;101746.53;4950376;28;20052;-70
2023/06/15 10:05:54;;;;;;;4.45;2.40;;;;;;;28.24;28.02;101744.72;4951093;28;20055;-70
2023/06/15 10:08:43;;;;;;;4.45;2.42;;;;;;;28.34;28.54;101745.56;4950078;28;20060;-71
2023/06/15 10:11:29;;;;;;;4.68;2.05;;;;;;;28.58;27.97;101753.31;4941834;28;20048;-71
2023/06/15 10:14:31;;;;;;;4.45;2.33;;;;;;;28.10;28.05;101749.56;4945810;28;20056;-73
2023/06/15 10:17:23;;;;;;;5.40;2.65;;;;;;;27.47;28.95;101747.91;4947934;28;20146;-71
2023/06/15 10:20:17;;;;;;;5.88;2.28;;;;;;;27.10;29.04;101756.53;4941588;28;20059;-71
2023/06/15 10:23:10;;;;;;;5.35;2.10;;;;;;;26.81;29.21;101760.75;4950347;28;20055;-71
2023/06/15 10:25:58;;;;;;;4.32;2.42;;;;;;;26.75;29.69;101754.97;4936453;28;20052;-71
2023/06/15 10:28:51;;;;;;;4.72;1.95;;;;;;;26.71;29.17;101758.94;4932080;28;20044;-73
2023/06/15 10:31:51;;;;;;;4.03;2.40;;;;;;;26.56;29.27;101756.53;4949139;28;20055;-71
2023/06/15 10:34:55;;;;;;;5.97;2.30;;;;;;;26.26;29.66;101755.41;4948452;28;20052;-71
2023/06/15 10:37:57;;;;;;;4.47;2.10;;;;;;;26.25;29.71;101748.28;4939072;28;20048;-71
2023/06/15 10:40:48;;;;;;;4.30;2.42;;;;;;;26.69;28.90;101747.38;4931397;29;20056;-71
2023/06/15 10:43:33;;;;;;;3.75;2.15;;;;;;;27.09;28.37;101761.06;4941024;28;20055;-71
2023/06/15 10:46:28;;;;;;;3.35;2.05;;;;;;;27.43;27.48;101743.72;4950460;28;20533;-71
2023/06/15 10:49:13;;;;;;;4.25;1.95;;;;;;;27.69;27.88;101741.44;4950409;28;20509;-70
2023/06/15 10:51:59;;;;;;;4.18;2.20;;;;;;;27.86;27.79;101742.63;4950800;28;20112;-70
2023/06/15 10:54:45;;;;;;;4.53;2.13;;;;;;;28.14;27.86;101747.44;4950620;28;20513;-71
2023/06/15 10:57:35;;;;;;;6.15;2.58;;;;;;;27.76;28.93;101749.03;4946176;28;20178;-72
2023/06/15 11:00:27;;;;;;;5.20;2.42;;;;;;;27.35;28.74;101746.25;4949072;28;20059;-72
2023/06/15 11:03:26;;;;;;;10.02;2.72;;;;;;;26.84;29.89;101746.09;4944452;28;20056;-71
2023/06/15 11:06:19;;;;;;;8.43;2.50;;;;;;;26.53;29.78;101747.81;4944001;28;20633;-73
2023/06/15 11:09:12;;;;;;;3.78;2.25;;;;;;;26.23;30.59;101752.94;4938099;28;20056;-73
2023/06/15 11:11:58;;;;;;;6.28;2.50;;;;;;;26.12;30.79;101753.84;4950350;28;20504;-70
2023/06/15 11:14:51;;;;;;;9.82;3.10;;;;;;;26.11;31.18;101748.56;4943013;28;20056;-70
2023/06/15 11:18:15;;;;;;;6.97;2.67;;;;;;;26.59;31.05;101748.16;4950506;28;20067;-71
2023/06/15 11:21:02;;;;;;;7.03;2.58;;;;;;;27.09;30.47;101744.84;4948820;28;20047;-71
2023/06/15 11:23:55;;;;;;;3.85;2.25;;;;;;;27.58;29.50;101749.66;4949269;28;20052;-73
2023/06/15 11:26:42;;;;;;;5.18;2.65;;;;;;;27.83;28.52;101737.47;4949266;28;20048;-70
2023/06/15 11:29:32;;;;;;;4.75;2.60;;;;;;;27.93;28.27;101737.50;4951638;28;20823;-72
2023/06/15 11:32:27;;;;;;;4.55;2.78;;;;;;;28.08;28.42;101732.59;4964776;28;20052;-72
2023/06/15 11:35:13;;;;;;;5.43;2.53;;;;;;;28.34;28.56;101740.16;4946821;28;20051;-72
2023/06/15 11:37:58;;;;;;;5.22;2.25;;;;;;;28.55;27.33;101741.88;4947692;28;20055;-73
2023/06/15 11:40:46;;;;;;;5.50;2.92;;;;;;;28.48;27.99;101733.47;4948952;28;20088;-72
2023/06/15 11:43:42;;;;;;;6.43;2.22;;;;;;;28.74;27.94;101731.06;4949982;28;20052;-72
2023/06/15 11:46:28;;;;;;;11.18;2.47;;;;;;;29.08;26.25;101730.53;4949403;28;20059;-73
2023/06/15 11:49:14;;;;;;;3.40;2.35;;;;;;;29.10;26.36;101731.25;4940843;28;20505;-73
2023/06/15 11:51:59;;;;;;;5.28;2.60;;;;;;;29.11;26.61;101724.84;4931269;28;20048;-72
2023/06/15 11:54:45;;;;;;;6.70;2.67;;;;;;;29.28;26.47;101719.63;4930384;29;20505;-71
2023/06/15 11:57:42;;;;;;;3.67;2.53;;;;;;;29.50;25.47;101720.28;4931484;28;20059;-71
2023/06/15 12:00:27;;;;;;;3.78;2.30;;;;;;;29.55;25.60;101707.97;4950153;28;20051;-71
2023/06/15 12:03:13;;;;;;;8.90;2.38;;;;;;;29.77;25.85;101708.56;4947905;28;20555;-71
2023/06/15 12:05:59;;;;;;;3.97;2.33;;;;;;;30.11;25.35;101710.66;4948009;28;20557;-71
2023/06/15 12:08:56;;;;;;;5.22;2.35;;;;;;;30.35;25.36;101699.16;4950391;28;20055;-71
2023/06/15 12:11:43;;;;;;;4.88;2.42;;;;;;;30.62;24.55;101701.97;4942129;28;20138;-71
2023/06/15 12:14:29;;;;;;;7.00;2.25;;;;;;;30.65;24.43;101697.03;4952604;28;20104;-71
2023/06/15 12:17:14;;;;;;;5.88;2.17;;;;;;;30.63;23.76;101699.06;4949136;28;20051;-72
2023/06/15 12:20:09;;;;;;;8.00;2.00;;;;;;;30.46;24.56;101695.31;4946642;28;20121;-71
2023/06/15 12:22:56;;;;;;;4.50;2.20;;;;;;;30.27;24.77;101698.22;4948027;28;20055;-71
2023/06/15 12:25:47;;;;;;;4.38;2.30;;;;;;;29.80;24.87;101699.25;4948054;28;20051;-71
2023/06/15 12:28:32;;;;;;;3.40;2.17;;;;;;;29.07;25.68;101706.28;4946357;28;20059;-73
2023/06/15 12:31:18;;;;;;;3.47;2.10;;;;;;;28.44;26.34;101699.50;4948891;28;20556;-72
2023/06/15 12:34:10;;;;;;;4.57;1.88;;;;;;;28.11;26.38;101694.38;4948361;28;20096;-71
2023/06/15 12:36:55;;;;;;;4.70;2.10;;;;;;;28.27;26.21;101695.66;4952585;28;20130;-71
2023/06/15 12:39:41;;;;;;;5.50;2.30;;;;;;;28.57;25.58;101697.34;4952157;28;20423;-70
2023/06/15 12:42:26;;;;;;;4.13;2.22;;;;;;;28.82;25.72;101686.91;4951829;28;20059;-70
2023/06/15 12:45:13;;;;;;;5.35;2.20;;;;;;;29.06;25.65;101682.84;4954047;28;20765;-72
2023/06/15 12:48:00;;;;;;;3.58;1.70;;;;;;;29.36;24.96;101686.34;4951438;28;20055;-72
2023/06/15 12:50:46;;;;;;;12.52;2.58;;;;;;;28.97;25.36;101681.88;4961327;28;20425;-70
2023/06/15 12:53:32;;;;;;;3.22;1.77;;;;;;;28.63;24.79;101683.22;4959506;28;20059;-73
2023/06/15 12:56:17;;;;;;;16.02;3.00;;;;;;;28.24;25.58;101690.50;4962777;28;20051;-70
2023/06/15 12:59:03;;;;;;;4.32;2.15;;;;;;;27.99;25.29;101682.75;4946345;28;20055;-69